Terminal Aerodrome Forecast
Issued by NWS

Home | Current Version | Previous Version | Text Only | Print | Product List | Glossary On
Versions: 1 2 3 4 5 6 7 8 9 10 11 12 13 14 15 16 17 18 19 20 21 22 23 24 25 26 27 28 29 30 31 32 33 34 35 36 37 38 39 40 41 42 43 44 45 46 47 48
518
FTUS45 KGJT 230532
TAFASE
TAF
KASE 230532Z 2306/2406 00000KT P6SM OVC060
     FM230800 19007KT P6SM VCSH BKN040 OVC045
     FM231600 17008KT P6SM -SHSN SCT045 OVC080
     FM232200 23007KT P6SM -SHSN SCT030 OVC050
     FM240100 26006KT 4SM -SHSN SCT040 OVC045=

USA.gov is the U.S. government's official web portal to all federal, state and local government web resources and services.